Time;durP1;ratioP1;P1;durP2;ratioP2;P2;SDS_P1;SDS_P2;PMS_P1;PMS_P2;Temp;Humidity;BMP_temperature;BMP_pressure;BME280_temperature;BME280_humidity;BME280_pressure;Samples;Min_cycle;Max_cycle;Signal;HPM_P1;HPM_P2
2023/07/05 00:00:02;;;;;;;4.03;1.65;;;;;;;17.74;77.19;96011.47;5050173;28;20416;-74
2023/07/05 00:02:29;;;;;;;3.10;1.50;;;;;;;17.69;77.12;96005.47;5050068;28;20048;-74
2023/07/05 00:04:56;;;;;;;2.35;1.42;;;;;;;17.78;77.23;96007.97;5050130;28;20051;-74
2023/07/05 00:07:23;;;;;;;3.15;1.77;;;;;;;17.71;76.10;96008.66;5049649;28;20628;-74
2023/07/05 00:09:50;;;;;;;3.40;1.73;;;;;;;17.64;76.52;96005.78;5050058;28;20053;-74
2023/07/05 00:12:16;;;;;;;3.20;1.70;;;;;;;17.75;76.45;96004.03;5049345;28;20045;-74
2023/07/05 00:14:43;;;;;;;2.60;1.77;;;;;;;17.76;77.07;95994.59;5060795;28;20048;-74
2023/07/05 00:17:10;;;;;;;2.72;1.70;;;;;;;17.84;77.20;95990.75;5060772;28;20528;-75
2023/07/05 00:19:36;;;;;;;2.78;1.55;;;;;;;17.87;76.99;95983.72;5049973;28;20041;-74
2023/07/05 00:22:03;;;;;;;5.28;1.80;;;;;;;17.88;76.40;95986.09;5049359;28;20048;-75
2023/07/05 00:24:31;;;;;;;3.95;1.90;;;;;;;17.88;76.64;95980.59;5049824;28;20049;-74
2023/07/05 00:26:57;;;;;;;3.25;1.65;;;;;;;17.74;76.63;95975.66;5049804;28;20048;-74
2023/07/05 00:29:26;;;;;;;3.65;1.60;;;;;;;17.81;77.03;95979.72;5049542;28;20044;-74
2023/07/05 00:31:52;;;;;;;2.05;1.30;;;;;;;17.84;76.73;95968.72;5049649;28;20036;-74
2023/07/05 00:34:19;;;;;;;3.22;1.70;;;;;;;17.71;76.62;95959.88;5049703;28;20044;-74
2023/07/05 00:36:46;;;;;;;3.08;1.67;;;;;;;17.60;76.76;95967.22;5049968;28;20094;-74
2023/07/05 00:39:12;;;;;;;3.63;1.60;;;;;;;17.64;76.92;95970.78;5049567;28;20045;-74
2023/07/05 00:41:40;;;;;;;2.92;1.88;;;;;;;17.65;76.82;95977.09;5049105;28;20052;-74
2023/07/05 00:44:06;;;;;;;3.20;1.73;;;;;;;17.56;77.11;95979.34;5050292;28;20041;-74
2023/07/05 00:46:35;;;;;;;3.33;1.83;;;;;;;17.51;77.38;95976.91;5049268;28;20072;-74
2023/07/05 00:49:06;;;;;;;2.92;1.67;;;;;;;17.23;78.77;95972.56;5048488;28;20512;-74
2023/07/05 00:51:40;;;;;;;3.35;1.98;;;;;;;17.32;78.54;95970.34;5049738;28;20041;-74
2023/07/05 00:54:06;;;;;;;4.47;1.70;;;;;;;17.43;78.02;95976.00;5049502;28;20516;-75
2023/07/05 00:56:39;;;;;;;3.03;1.65;;;;;;;17.43;77.91;95976.78;5049466;28;20570;-74
2023/07/05 00:59:11;;;;;;;5.15;1.70;;;;;;;17.48;77.45;95968.19;5048875;28;20118;-74
2023/07/05 01:01:38;;;;;;;4.45;1.83;;;;;;;17.40;77.06;95977.53;5049496;28;20400;-74
2023/07/05 01:04:05;;;;;;;3.30;2.00;;;;;;;17.25;78.16;95980.47;5049137;28;20049;-74
2023/07/05 01:06:32;;;;;;;2.63;1.70;;;;;;;17.25;78.40;95975.75;5049276;28;20049;-74
2023/07/05 01:08:58;;;;;;;3.35;1.73;;;;;;;17.18;77.96;95978.41;5049154;28;20044;-74
2023/07/05 01:11:33;;;;;;;3.08;1.70;;;;;;;17.17;77.75;95976.78;5047842;28;20148;-74
2023/07/05 01:14:04;;;;;;;4.13;1.60;;;;;;;17.17;78.32;95974.03;5050235;28;20048;-74
2023/07/05 01:16:50;;;;;;;4.28;1.60;;;;;;;17.19;78.45;95978.03;5049144;28;20419;-74
2023/07/05 01:19:47;;;;;;;6.63;1.95;;;;;;;17.20;78.63;95973.31;5049028;28;20045;-74
2023/07/05 01:22:23;;;;;;;3.58;1.80;;;;;;;17.18;78.96;95967.38;5048432;28;20041;-75
2023/07/05 01:25:13;;;;;;;3.60;1.85;;;;;;;17.16;78.89;95980.72;5049214;28;20049;-74
2023/07/05 01:27:58;;;;;;;3.08;2.08;;;;;;;16.99;78.85;95979.28;5048880;28;20037;-74
2023/07/05 01:30:52;;;;;;;6.13;2.03;;;;;;;16.78;80.46;95979.72;5029235;28;20054;-74
2023/07/05 01:33:23;;;;;;;2.78;1.70;;;;;;;16.90;80.10;95987.75;5045489;28;20040;-74
2023/07/05 01:35:57;;;;;;;3.78;1.90;;;;;;;16.93;79.87;95987.03;5049591;28;20056;-74
2023/07/05 01:38:24;;;;;;;2.47;1.60;;;;;;;16.97;79.56;95991.81;5048582;28;20037;-74
2023/07/05 01:40:58;;;;;;;6.53;2.53;;;;;;;16.77;80.06;95988.34;5049762;28;20060;-74
2023/07/05 01:43:27;;;;;;;4.03;2.00;;;;;;;16.79;79.94;95991.50;5049627;28;20052;-74
2023/07/05 01:46:14;;;;;;;3.80;2.10;;;;;;;16.61;81.46;96015.91;5069947;28;20051;-74
2023/07/05 01:48:53;;;;;;;3.63;2.17;;;;;;;16.41;82.37;96048.91;5051660;28;20408;-74
2023/07/05 01:51:27;;;;;;;5.82;2.10;;;;;;;16.24;85.36;96092.53;5049021;28;20040;-74
2023/07/05 01:54:01;;;;;;;4.70;2.33;;;;;;;16.10;86.48;96024.34;5049103;28;20041;-74
2023/07/05 01:56:30;;;;;;;;;;;;;;;16.21;86.66;96022.59;5049546;28;20048;-74
2023/07/05 01:59:01;;;;;;;3.35;2.33;;;;;;;16.21;86.41;96036.34;5049029;28;19921;-74
2023/07/05 02:01:29;;;;;;;3.67;2.10;;;;;;;16.15;86.56;96041.31;5051305;28;20041;-74
2023/07/05 02:03:57;;;;;;;3.55;2.08;;;;;;;16.14;86.32;96033.47;5052420;28;20048;-74
2023/07/05 02:06:23;;;;;;;3.95;1.90;;;;;;;16.08;87.41;96012.94;5051886;28;20053;-74
2023/07/05 02:08:51;;;;;;;3.95;2.10;;;;;;;16.11;86.62;96028.66;5052297;28;20044;-74
2023/07/05 02:11:18;;;;;;;4.30;1.73;;;;;;;16.22;86.09;96017.91;5051865;28;20053;-74
2023/07/05 02:13:45;;;;;;;3.08;1.65;;;;;;;16.39;85.61;96011.94;5054880;28;20054;-74
2023/07/05 02:16:11;;;;;;;3.00;1.83;;;;;;;16.35;85.45;96003.66;5063817;28;20037;-74
2023/07/05 02:18:38;;;;;;;4.15;1.70;;;;;;;16.44;84.75;96004.22;5052257;28;20056;-74
2023/07/05 02:21:10;;;;;;;4.22;1.77;;;;;;;16.53;84.04;95992.19;5051529;28;20045;-74
2023/07/05 02:23:36;;;;;;;3.90;2.10;;;;;;;16.58;83.41;95983.63;5051910;28;20041;-74
2023/07/05 02:26:05;;;;;;;2.83;1.90;;;;;;;16.56;83.46;95981.25;5051990;28;20052;-75
2023/07/05 02:28:31;;;;;;;6.05;2.30;;;;;;;16.47;83.61;95983.44;5052323;28;20045;-74
2023/07/05 02:30:58;;;;;;;3.38;1.60;;;;;;;16.55;83.51;95974.19;5052275;28;20065;-74
2023/07/05 02:33:24;;;;;;;3.40;2.00;;;;;;;16.60;83.25;95978.56;5051446;28;20048;-74
2023/07/05 02:35:51;;;;;;;2.90;1.85;;;;;;;16.54;83.26;95969.81;5052025;28;20045;-74
2023/07/05 02:38:19;;;;;;;3.10;2.00;;;;;;;16.43;83.52;95968.84;5052430;28;20053;-74
2023/07/05 02:40:48;;;;;;;3.35;1.90;;;;;;;16.47;83.44;95963.41;5052881;28;20044;-74
2023/07/05 02:43:14;;;;;;;4.70;1.80;;;;;;;16.50;83.46;95973.69;5052028;28;20045;-74
2023/07/05 02:45:41;;;;;;;2.90;1.83;;;;;;;16.49;83.80;95955.59;5071625;28;20047;-74
2023/07/05 02:48:07;;;;;;;5.95;1.98;;;;;;;16.35;83.90;95951.44;5063016;28;20055;-75
2023/07/05 02:50:39;;;;;;;3.92;2.15;;;;;;;16.40;83.59;95951.16;5051971;28;20052;-74
2023/07/05 02:53:05;;;;;;;4.32;2.42;;;;;;;16.24;84.28;95938.69;5051544;28;20527;-75
2023/07/05 02:55:33;;;;;;;6.30;2.35;;;;;;;16.27;84.13;95941.47;5054768;28;20140;-74
2023/07/05 02:58:00;;;;;;;4.60;2.25;;;;;;;16.10;85.23;95939.19;5056771;28;20041;-74
2023/07/05 03:00:29;;;;;;;6.20;2.40;;;;;;;16.05;85.89;95942.25;5056513;28;20512;-74
2023/07/05 03:02:55;;;;;;;3.15;1.70;;;;;;;16.05;85.56;95942.25;5056061;28;20523;-76
2023/07/05 03:05:22;;;;;;;4.43;2.38;;;;;;;15.92;86.78;95941.56;5055891;28;20053;-74
2023/07/05 03:07:48;;;;;;;6.40;2.13;;;;;;;15.96;86.37;95944.41;5055152;28;20041;-75
2023/07/05 03:10:15;;;;;;;4.07;2.05;;;;;;;15.81;86.96;95946.84;5053575;28;20078;-74
2023/07/05 03:12:43;;;;;;;4.15;2.50;;;;;;;15.90;86.88;95946.66;5053844;28;20052;-75
2023/07/05 03:15:10;;;;;;;3.90;1.75;;;;;;;15.99;86.23;95949.19;5064729;28;20419;-74
2023/07/05 03:17:36;;;;;;;4.32;1.90;;;;;;;16.14;85.67;95951.06;5072933;28;20051;-74
2023/07/05 03:20:03;;;;;;;3.00;1.90;;;;;;;16.25;84.87;95945.75;5057395;28;20060;-75
2023/07/05 03:22:30;;;;;;;3.15;2.00;;;;;;;16.33;84.49;95942.75;5055974;28;20518;-75
2023/07/05 03:24:56;;;;;;;3.83;2.25;;;;;;;16.38;84.36;95934.22;5059064;28;20052;-74
2023/07/05 03:27:23;;;;;;;3.90;1.85;;;;;;;16.45;83.90;95933.56;5054762;28;20676;-74
2023/07/05 03:29:51;;;;;;;4.28;1.83;;;;;;;16.50;83.45;95935.22;5050923;28;20045;-74
2023/07/05 03:32:18;;;;;;;4.63;2.28;;;;;;;16.49;83.34;95933.59;5050125;28;20040;-74
2023/07/05 03:34:44;;;;;;;2.85;1.85;;;;;;;16.43;82.88;95931.16;5050738;28;20049;-74
2023/07/05 03:37:11;;;;;;;4.32;1.70;;;;;;;16.48;82.83;95926.53;5050585;28;20045;-75
2023/07/05 03:39:37;;;;;;;4.40;1.65;;;;;;;16.55;82.61;95932.97;5051123;28;20045;-74
2023/07/05 03:42:05;;;;;;;5.80;2.20;;;;;;;16.37;82.02;95932.63;5049791;28;20060;-75
2023/07/05 03:44:31;;;;;;;4.82;2.20;;;;;;;16.47;81.56;95936.72;5058591;28;20408;-73
2023/07/05 03:46:59;;;;;;;5.53;1.77;;;;;;;16.49;81.65;95933.59;5050333;28;20044;-74
2023/07/05 03:49:26;;;;;;;3.25;1.65;;;;;;;16.50;81.77;95937.97;5049945;28;20048;-74
2023/07/05 03:51:52;;;;;;;4.82;2.10;;;;;;;16.40;82.10;95942.13;5050324;28;20052;-74
2023/07/05 03:54:19;;;;;;;4.60;1.98;;;;;;;16.39;82.49;95941.31;5050232;28;20052;-74
2023/07/05 03:56:45;;;;;;;3.50;2.10;;;;;;;16.41;82.00;95944.47;5050214;28;20041;-74
2023/07/05 03:59:12;;;;;;;5.15;1.92;;;;;;;16.39;81.95;95938.56;5050040;28;20045;-74
2023/07/05 04:01:38;;;;;;;6.43;1.90;;;;;;;16.43;81.75;95942.16;5056244;28;20052;-74
2023/07/05 04:04:06;;;;;;;3.47;1.88;;;;;;;16.44;82.58;95946.50;5057660;28;20044;-74
2023/07/05 04:06:34;;;;;;;3.42;2.00;;;;;;;16.51;82.32;95954.09;5058426;28;20416;-77
2023/07/05 04:09:01;;;;;;;4.43;1.90;;;;;;;16.53;81.53;95953.72;5058442;28;20051;-74
2023/07/05 04:11:28;;;;;;;4.78;2.03;;;;;;;16.41;80.98;95955.47;5057540;28;20045;-74
2023/07/05 04:13:55;;;;;;;4.13;1.80;;;;;;;16.49;80.95;95950.88;5061710;28;20048;-74
2023/07/05 04:16:24;;;;;;;2.88;1.70;;;;;;;16.57;80.84;95951.81;5057735;28;20067;-74
2023/07/05 04:18:53;;;;;;;5.28;2.25;;;;;;;16.32;81.41;95952.16;5058403;28;20099;-75
2023/07/05 04:21:22;;;;;;;3.60;1.73;;;;;;;16.48;81.01;95945.75;5050867;28;20045;-74
2023/07/05 04:23:48;;;;;;;2.45;1.70;;;;;;;16.54;80.75;95941.53;5050332;28;20515;-74
2023/07/05 04:26:17;;;;;;;3.30;1.90;;;;;;;16.54;81.38;95942.34;5049958;28;20049;-75
2023/07/05 04:28:44;;;;;;;3.78;1.75;;;;;;;16.57;81.43;95940.81;5050577;28;20064;-74
2023/07/05 04:31:15;;;;;;;4.15;2.10;;;;;;;16.59;81.18;95946.75;5039011;28;20049;-74
2023/07/05 04:33:41;;;;;;;3.40;1.73;;;;;;;16.55;81.29;95943.13;5050395;28;20069;-74
2023/07/05 04:36:08;;;;;;;4.35;2.05;;;;;;;16.54;81.33;95947.84;5049297;28;20037;-74
2023/07/05 04:38:36;;;;;;;3.60;1.60;;;;;;;16.69;81.71;95943.38;5049878;28;20120;-74
2023/07/05 04:41:03;;;;;;;5.00;2.10;;;;;;;16.77;81.76;95939.63;5049798;28;20045;-75
2023/07/05 04:43:29;;;;;;;3.47;2.20;;;;;;;16.82;81.11;95944.81;5051589;28;20059;-74
2023/07/05 04:45:58;;;;;;;7.18;1.83;;;;;;;16.89;80.88;95950.44;5060867;28;20041;-74
2023/07/05 04:48:26;;;;;;;5.45;3.55;;;;;;;16.97;80.81;95940.34;5051402;28;20063;-74
2023/07/05 04:50:54;;;;;;;3.47;2.03;;;;;;;17.04;80.59;95947.91;5050781;28;20045;-74
2023/07/05 04:53:21;;;;;;;5.43;2.58;;;;;;;16.94;80.14;95954.81;5049174;28;20045;-74
2023/07/05 04:55:51;;;;;;;3.22;1.80;;;;;;;16.91;79.99;95950.88;5049801;28;20060;-74
2023/07/05 04:58:19;;;;;;;5.07;2.10;;;;;;;16.74;80.22;95956.84;5049146;28;20072;-75
2023/07/05 05:00:49;;;;;;;4.30;1.80;;;;;;;16.55;80.15;95960.44;5050808;28;20412;-74
2023/07/05 05:03:16;;;;;;;3.20;1.80;;;;;;;16.56;80.81;95969.47;5049363;28;20076;-74
2023/07/05 05:05:44;;;;;;;3.63;1.92;;;;;;;16.49;81.52;95963.84;5049756;28;20068;-74
2023/07/05 05:08:10;;;;;;;5.88;1.98;;;;;;;16.43;81.79;95969.63;5049013;28;20041;-74
2023/07/05 05:10:37;;;;;;;3.88;2.00;;;;;;;16.39;82.26;95974.28;5049569;28;20052;-74
2023/07/05 05:13:06;;;;;;;3.45;1.80;;;;;;;16.50;81.67;95979.19;5048729;28;20056;-74
2023/07/05 05:15:35;;;;;;;4.35;1.95;;;;;;;16.51;81.71;95981.56;5066964;28;20575;-74
2023/07/05 05:18:01;;;;;;;2.92;1.83;;;;;;;16.59;81.43;95976.97;5063098;28;20496;-74
2023/07/05 05:20:29;;;;;;;4.22;2.20;;;;;;;16.64;81.09;95984.91;5049487;28;20519;-74
2023/07/05 05:22:56;;;;;;;4.05;2.00;;;;;;;16.78;80.58;95984.41;5049193;28;20049;-75
2023/07/05 05:25:22;;;;;;;3.28;1.60;;;;;;;16.93;80.08;95984.28;5048625;28;20060;-74
2023/07/05 05:27:49;;;;;;;4.13;2.20;;;;;;;17.06;79.48;95992.34;5049054;28;20408;-74
2023/07/05 05:30:17;;;;;;;4.18;1.90;;;;;;;17.15;78.87;95996.41;5049074;28;20049;-74
2023/07/05 05:32:45;;;;;;;3.70;1.98;;;;;;;17.21;79.57;96002.41;5048960;28;20067;-74
2023/07/05 05:35:11;;;;;;;5.82;1.70;;;;;;;17.40;79.60;96016.06;5049021;28;20056;-75
2023/07/05 05:37:38;;;;;;;3.55;1.70;;;;;;;17.55;77.20;96016.28;5052983;28;20528;-74
2023/07/05 05:40:06;;;;;;;4.35;1.85;;;;;;;17.62;76.57;96038.41;5052450;28;20068;-74
2023/07/05 05:42:33;;;;;;;6.15;1.80;;;;;;;17.82;76.75;96092.25;5052810;28;20057;-74
2023/07/05 05:44:59;;;;;;;4.00;1.40;;;;;;;17.94;77.19;96127.84;5054919;28;20045;-74
2023/07/05 05:47:27;;;;;;;5.40;2.17;;;;;;;17.95;77.43;96137.69;5052391;28;20052;-74
2023/07/05 05:49:54;;;;;;;7.18;1.90;;;;;;;17.73;78.84;96133.03;5052883;28;20053;-74
2023/07/05 05:52:20;;;;;;;5.32;1.73;;;;;;;17.93;77.33;96140.03;5052072;28;20563;-74
2023/07/05 05:54:47;;;;;;;7.32;2.03;;;;;;;17.83;79.46;96137.91;5052778;28;20056;-75
2023/07/05 05:57:13;;;;;;;3.80;1.58;;;;;;;17.85;79.12;96135.56;5052317;28;20045;-74
2023/07/05 05:59:40;;;;;;;4.85;2.15;;;;;;;17.71;80.80;96130.63;5052365;28;20053;-75
2023/07/05 06:02:06;;;;;;;13.32;5.03;;;;;;;17.67;82.74;96139.97;5051695;28;20044;-74
2023/07/05 06:04:34;;;;;;;7.38;2.60;;;;;;;17.73;81.96;96133.03;5052122;28;20041;-75
2023/07/05 06:07:01;;;;;;;5.75;2.20;;;;;;;17.88;80.71;96132.06;5052536;28;20045;-74
2023/07/05 06:09:27;;;;;;;3.50;1.80;;;;;;;17.87;80.53;96133.25;5052168;28;20049;-74
2023/07/05 06:11:54;;;;;;;4.00;1.92;;;;;;;17.93;81.46;96137.28;5052469;28;20069;-75
2023/07/05 06:14:20;;;;;;;7.68;1.67;;;;;;;17.92;81.72;96129.38;5058069;28;20423;-74
2023/07/05 06:16:47;;;;;;;4.85;1.80;;;;;;;18.12;79.19;96132.84;5052032;28;20454;-75
2023/07/05 06:19:13;;;;;;;5.97;1.63;;;;;;;17.95;80.83;96123.91;5052191;28;20045;-74
2023/07/05 06:21:41;;;;;;;4.90;1.70;;;;;;;17.94;81.13;96127.84;5051976;28;20136;-74
2023/07/05 06:24:08;;;;;;;5.90;1.70;;;;;;;17.99;80.94;96124.75;5051719;28;20037;-75
2023/07/05 06:26:35;;;;;;;3.88;1.55;;;;;;;18.13;80.12;96120.63;5052131;28;20136;-75
2023/07/05 06:29:01;;;;;;;5.88;1.52;;;;;;;18.10;80.24;96113.09;5052048;28;20056;-74
2023/07/05 06:31:33;;;;;;;3.35;1.40;;;;;;;18.13;80.80;96106.84;5051300;28;20053;-74
2023/07/05 06:34:00;;;;;;;3.95;1.67;;;;;;;18.18;79.79;96121.09;5052240;28;20140;-74
2023/07/05 06:36:26;;;;;;;4.70;1.50;;;;;;;18.15;79.39;96116.31;5051515;28;20049;-74
2023/07/05 06:38:54;;;;;;;3.05;1.20;;;;;;;18.19;79.07;96116.38;5052214;28;20053;-74
2023/07/05 06:41:21;;;;;;;3.15;1.42;;;;;;;18.23;78.52;96122.75;5051360;28;20049;-74
2023/07/05 06:43:47;;;;;;;5.50;1.67;;;;;;;18.27;78.12;96120.84;5054867;28;20048;-74
2023/07/05 06:46:14;;;;;;;5.25;1.30;;;;;;;18.35;78.14;96121.72;5053000;28;20037;-74
2023/07/05 06:48:40;;;;;;;3.97;1.60;;;;;;;18.40;77.90;96124.13;5050873;28;20718;-74
2023/07/05 06:51:07;;;;;;;4.47;1.60;;;;;;;18.47;77.17;96118.72;5051050;28;20492;-74
2023/07/05 06:53:33;;;;;;;2.83;1.10;;;;;;;18.47;75.08;96130.53;5051863;28;20053;-75
2023/07/05 06:56:01;;;;;;;1.90;1.30;;;;;;;18.34;75.90;96129.19;5052335;28;20045;-74
2023/07/05 06:58:27;;;;;;;2.85;1.27;;;;;;;18.29;76.89;96121.25;5051455;28;20056;-74
2023/07/05 07:00:54;;;;;;;5.82;1.60;;;;;;;18.40;77.94;96111.16;5051455;28;20047;-74
2023/07/05 07:03:21;;;;;;;1.88;1.15;;;;;;;18.34;75.80;96122.88;5051087;28;20045;-75
2023/07/05 07:05:52;;;;;;;2.90;1.30;;;;;;;18.51;75.60;96122.31;5051282;28;20128;-74
2023/07/05 07:08:19;;;;;;;4.00;1.38;;;;;;;18.54;75.84;96127.09;5050737;28;20751;-74
2023/07/05 07:10:45;;;;;;;3.92;1.42;;;;;;;18.47;76.93;96136.03;5051244;28;20049;-74
2023/07/05 07:13:13;;;;;;;2.00;1.17;;;;;;;18.43;78.32;96137.97;5050461;28;20102;-74
2023/07/05 07:15:41;;;;;;;2.75;1.45;;;;;;;18.46;78.06;96130.91;5069814;28;20415;-74
2023/07/05 07:18:07;;;;;;;3.58;1.60;;;;;;;18.57;76.88;96142.06;5058611;28;20518;-74
2023/07/05 07:20:34;;;;;;;2.35;1.25;;;;;;;18.45;76.59;96140.34;5050809;28;20420;-74
2023/07/05 07:23:01;;;;;;;2.92;1.30;;;;;;;18.56;76.60;96154.28;5050863;28;20043;-74
2023/07/05 07:25:29;;;;;;;2.92;1.33;;;;;;;18.65;76.42;96149.28;5050792;28;20037;-74
2023/07/05 07:27:55;;;;;;;3.67;1.10;;;;;;;18.71;76.57;96156.06;5050767;28;20136;-74
2023/07/05 07:30:23;;;;;;;2.80;1.45;;;;;;;18.73;77.32;96150.97;5050452;28;20408;-74
2023/07/05 07:32:50;;;;;;;2.38;1.50;;;;;;;18.66;76.66;96148.09;5050739;28;20051;-75
2023/07/05 07:35:16;;;;;;;2.50;1.40;;;;;;;18.63;76.26;96157.91;5050093;28;20067;-74
2023/07/05 07:37:43;;;;;;;2.92;1.58;;;;;;;18.44;77.60;96150.59;5050794;28;20045;-75
2023/07/05 07:40:10;;;;;;;5.40;1.48;;;;;;;18.36;78.74;96153.63;5050303;28;20048;-75
2023/07/05 07:42:36;;;;;;;5.72;1.58;;;;;;;18.50;79.00;96151.84;5050736;28;20048;-74
2023/07/05 07:45:03;;;;;;;2.90;1.50;;;;;;;18.50;78.82;96162.09;5056449;28;20048;-74
2023/07/05 07:47:30;;;;;;;2.08;1.40;;;;;;;18.29;79.36;96153.53;5050259;28;20054;-74
2023/07/05 07:49:57;;;;;;;3.25;1.77;;;;;;;18.39;79.81;96153.69;5049429;28;20052;-74
2023/07/05 07:52:23;;;;;;;4.60;1.70;;;;;;;18.28;79.84;96158.25;5049966;28;20045;-74
2023/07/05 07:54:50;;;;;;;4.60;1.80;;;;;;;18.42;79.47;96158.41;5050769;28;20076;-75
2023/07/05 07:57:16;;;;;;;3.03;1.50;;;;;;;18.31;78.94;96151.97;5050208;28;20515;-74
2023/07/05 07:59:43;;;;;;;3.58;1.80;;;;;;;18.39;79.79;96144.63;5049825;28;20045;-74
2023/07/05 08:02:13;;;;;;;3.22;1.52;;;;;;;18.31;78.53;96146.47;5049768;28;20056;-75
2023/07/05 08:04:44;;;;;;;3.00;1.60;;;;;;;18.19;78.52;96143.94;5050758;28;20053;-74
2023/07/05 08:07:11;;;;;;;3.28;1.60;;;;;;;18.29;78.93;96145.25;5049692;28;20049;-74
2023/07/05 08:09:37;;;;;;;5.50;1.48;;;;;;;18.44;78.92;96133.25;5050137;28;20045;-74
2023/07/05 08:12:04;;;;;;;3.38;1.60;;;;;;;18.46;76.84;96137.22;5049797;28;20075;-74
2023/07/05 08:14:31;;;;;;;3.65;1.67;;;;;;;18.52;77.26;96130.19;5059068;28;20049;-74
2023/07/05 08:16:57;;;;;;;2.03;1.20;;;;;;;18.69;75.41;96136.38;5051798;28;20520;-74
2023/07/05 08:19:24;;;;;;;2.60;1.60;;;;;;;18.90;77.79;96128.34;5049842;28;20048;-74
2023/07/05 08:21:51;;;;;;;3.88;1.52;;;;;;;19.07;74.59;96126.13;5049772;28;20508;-74
2023/07/05 08:24:18;;;;;;;2.60;1.33;;;;;;;19.30;73.20;96118.47;5048594;28;20049;-74
2023/07/05 08:26:45;;;;;;;4.43;1.98;;;;;;;19.28;70.36;96120.81;5049478;28;20037;-74
2023/07/05 08:29:12;;;;;;;4.05;1.63;;;;;;;19.28;70.63;96124.38;5049176;28;20512;-75
2023/07/05 08:31:38;;;;;;;2.67;1.33;;;;;;;19.46;72.68;96115.47;5049780;28;20040;-74
2023/07/05 08:34:05;;;;;;;2.90;1.58;;;;;;;19.39;70.63;96123.69;5049454;28;20055;-74
2023/07/05 08:36:34;;;;;;;2.88;1.70;;;;;;;19.54;70.36;96120.66;5049445;28;20056;-74
2023/07/05 08:39:05;;;;;;;4.20;1.63;;;;;;;19.61;68.41;96117.19;5049743;28;20132;-74
2023/07/05 08:41:44;;;;;;;2.67;1.70;;;;;;;19.68;69.54;96116.44;5049081;28;20052;-74
2023/07/05 08:44:20;;;;;;;2.63;1.48;;;;;;;19.69;68.62;96123.59;5055948;28;20045;-74
2023/07/05 08:46:50;;;;;;;6.45;2.10;;;;;;;19.75;69.12;96111.00;5058675;28;20040;-74
2023/07/05 08:49:22;;;;;;;4.70;1.67;;;;;;;19.91;70.05;96103.22;5049595;28;20041;-74
2023/07/05 08:51:49;;;;;;;5.72;2.08;;;;;;;20.37;69.47;96113.75;5049570;28;20049;-74
2023/07/05 08:54:17;;;;;;;3.80;1.80;;;;;;;20.51;64.88;96118.56;5049052;28;20060;-74
2023/07/05 08:56:47;;;;;;;7.28;2.28;;;;;;;20.54;65.13;96118.59;5049516;28;20044;-74
2023/07/05 08:59:24;;;;;;;3.25;2.03;;;;;;;20.94;63.67;96119.56;5049179;28;20048;-74
2023/07/05 09:01:55;;;;;;;2.55;1.80;;;;;;;21.26;64.79;96110.53;5048960;28;20041;-74
2023/07/05 09:04:24;;;;;;;5.20;1.92;;;;;;;21.45;64.31;96107.41;5049602;28;20079;-75
2023/07/05 09:06:57;;;;;;;3.30;1.70;;;;;;;21.63;64.28;96104.66;5049425;28;20041;-74
2023/07/05 09:09:43;;;;;;;5.53;2.10;;;;;;;21.59;62.55;96099.09;5049005;28;20053;-74
2023/07/05 09:12:20;;;;;;;4.90;2.00;;;;;;;21.66;62.02;96098.28;5036672;28;20048;-75
2023/07/05 09:15:02;;;;;;;5.88;2.28;;;;;;;21.59;60.95;96088.00;5065002;28;20684;-74
2023/07/05 09:17:36;;;;;;;4.45;2.10;;;;;;;21.65;62.17;96102.25;5053246;28;20068;-74
2023/07/05 09:20:17;;;;;;;3.05;1.92;;;;;;;21.37;59.30;96094.75;5053211;28;20046;-75
2023/07/05 09:22:47;;;;;;;3.75;2.15;;;;;;;21.29;58.38;96098.66;5052944;28;20049;-74
2023/07/05 09:25:21;;;;;;;4.45;2.40;;;;;;;21.31;58.79;96099.09;5052824;28;20040;-74
2023/07/05 09:27:51;;;;;;;5.82;2.50;;;;;;;21.46;58.97;96097.91;5053392;28;20044;-74
2023/07/05 09:30:24;;;;;;;5.28;2.58;;;;;;;21.52;59.24;96095.53;5052693;28;20041;-75
2023/07/05 09:32:55;;;;;;;;;;;;;;;21.54;59.37;96101.47;5053809;28;20045;-74
2023/07/05 09:35:26;;;;;;;3.58;2.35;;;;;;;21.63;58.54;96094.34;5057273;28;19950;-75
2023/07/05 09:37:59;;;;;;;4.90;2.42;;;;;;;21.70;58.28;96095.53;5058067;28;20534;-74
2023/07/05 09:40:31;;;;;;;4.88;2.42;;;;;;;21.85;58.74;96094.34;5058032;28;20045;-75
2023/07/05 09:43:00;;;;;;;3.83;2.10;;;;;;;22.13;57.95;96099.88;5058053;28;20056;-74
2023/07/05 09:45:27;;;;;;;5.07;2.33;;;;;;;22.09;54.26;96099.06;5058430;28;20045;-75
2023/07/05 09:47:59;;;;;;;4.70;2.55;;;;;;;21.86;53.36;96090.38;5058674;28;20048;-74
2023/07/05 09:50:26;;;;;;;4.30;2.17;;;;;;;21.89;53.35;96095.13;5058654;28;20045;-74
2023/07/05 09:52:58;;;;;;;3.38;2.30;;;;;;;22.12;54.30;96098.28;5059637;28;20060;-74
2023/07/05 09:55:26;;;;;;;5.40;2.20;;;;;;;22.37;53.80;96091.88;5058034;28;20076;-75
2023/07/05 09:57:54;;;;;;;4.72;2.47;;;;;;;22.52;52.83;96093.41;5057872;28;20049;-74
2023/07/05 10:00:23;;;;;;;4.07;2.13;;;;;;;22.79;52.47;96087.34;5058213;28;20440;-75
2023/07/05 10:02:52;;;;;;;4.75;2.55;;;;;;;22.96;53.07;96088.47;5057737;28;20103;-75
2023/07/05 10:05:26;;;;;;;3.95;2.15;;;;;;;23.33;51.50;96085.84;5057044;28;20048;-75
2023/07/05 10:07:55;;;;;;;3.83;2.13;;;;;;;23.43;50.63;96101.66;5052817;28;20496;-74
2023/07/05 10:10:25;;;;;;;3.35;2.20;;;;;;;23.47;50.29;96098.88;5052414;28;21080;-74
2023/07/05 10:13:02;;;;;;;4.40;2.33;;;;;;;23.65;49.39;96102.34;5051707;28;20424;-75
2023/07/05 10:15:30;;;;;;;3.63;2.33;;;;;;;23.86;47.91;96103.38;5069600;28;20044;-74
2023/07/05 10:17:58;;;;;;;6.88;2.35;;;;;;;24.00;48.13;96106.00;5059365;28;20045;-75
2023/07/05 10:20:27;;;;;;;3.65;2.10;;;;;;;24.10;47.45;96088.41;5051791;28;20044;-74
2023/07/05 10:22:58;;;;;;;3.80;2.30;;;;;;;24.07;48.68;96100.38;5051916;28;20132;-75
2023/07/05 10:25:30;;;;;;;3.72;2.40;;;;;;;24.11;48.71;96083.63;5051551;28;20048;-75
2023/07/05 10:28:02;;;;;;;3.50;2.10;;;;;;;24.26;49.54;96089.84;5047991;28;20508;-75
2023/07/05 10:30:29;;;;;;;2.67;1.92;;;;;;;24.36;48.49;96088.97;5052031;28;20041;-74
2023/07/05 10:33:14;;;;;;;3.38;2.30;;;;;;;24.18;49.71;96089.94;5051728;28;20522;-74
2023/07/05 10:35:46;;;;;;;4.10;2.30;;;;;;;24.22;49.64;96101.00;5052327;28;20060;-74
2023/07/05 10:38:20;;;;;;;4.35;2.60;;;;;;;24.31;50.03;96087.41;5051615;28;20128;-74
2023/07/05 10:40:47;;;;;;;4.05;2.22;;;;;;;24.29;50.52;96089.81;5051745;28;20041;-75
2023/07/05 10:43:15;;;;;;;8.18;2.55;;;;;;;24.02;50.09;96103.63;5051300;28;20045;-75
2023/07/05 10:45:41;;;;;;;3.03;2.05;;;;;;;24.02;50.81;96092.50;5070790;28;20499;-74
2023/07/05 10:48:23;;;;;;;3.85;2.30;;;;;;;23.83;50.68;96093.06;5061213;28;20041;-75
2023/07/05 10:50:51;;;;;;;7.28;2.45;;;;;;;23.72;50.98;96084.03;5050799;28;20496;-74
2023/07/05 10:53:21;;;;;;;5.57;2.53;;;;;;;23.74;52.45;96081.63;5051204;28;20041;-75
2023/07/05 10:55:54;;;;;;;4.20;2.55;;;;;;;23.74;52.30;96081.63;5042472;28;20508;-74
2023/07/05 10:58:36;;;;;;;5.43;2.40;;;;;;;23.68;51.79;96090.38;5051085;28;20053;-74
2023/07/05 11:01:10;;;;;;;5.28;2.40;;;;;;;23.71;51.57;96079.66;5051206;28;20044;-75
2023/07/05 11:03:42;;;;;;;6.15;2.28;;;;;;;23.41;51.97;96084.63;5051663;28;20053;-74
2023/07/05 11:06:10;;;;;;;5.57;2.60;;;;;;;23.40;51.94;96096.16;5051141;28;20045;-75
2023/07/05 11:08:40;;;;;;;9.43;2.80;;;;;;;22.98;52.29;96106.34;5051336;28;20045;-74
2023/07/05 11:11:15;;;;;;;5.28;2.30;;;;;;;23.00;52.81;96101.16;5050955;28;20045;-74
2023/07/05 11:13:44;;;;;;;3.38;2.42;;;;;;;23.08;52.59;96102.72;5051062;28;20041;-74
2023/07/05 11:16:17;;;;;;;5.13;2.45;;;;;;;22.88;53.61;96093.28;5050771;28;20051;-75
2023/07/05 11:18:44;;;;;;;4.90;2.50;;;;;;;22.71;53.87;96108.00;5051054;28;20049;-74
2023/07/05 11:21:35;;;;;;;4.43;2.60;;;;;;;22.57;54.56;96117.97;5050655;28;20648;-74
2023/07/05 11:24:04;;;;;;;5.57;2.65;;;;;;;22.39;55.65;96117.22;5050888;28;20052;-74
2023/07/05 11:26:33;;;;;;;3.83;2.45;;;;;;;22.11;55.58;96118.88;5051382;28;20053;-75
2023/07/05 11:29:02;;;;;;;7.22;3.40;;;;;;;21.56;61.08;96116.53;5050812;28;20412;-74
2023/07/05 11:31:56;;;;;;;6.50;2.53;;;;;;;21.40;65.32;96112.53;5050214;28;20111;-74
2023/07/05 11:34:34;;;;;;;6.05;2.72;;;;;;;20.96;67.99;96114.41;5046959;28;20048;-75
2023/07/05 11:37:38;;;;;;;6.28;2.97;;;;;;;20.69;70.00;96113.13;5051056;28;20053;-74
2023/07/05 11:40:25;;;;;;;5.00;3.00;;;;;;;20.39;72.33;96111.38;5050413;28;20045;-75
2023/07/05 11:42:52;;;;;;;9.00;3.17;;;;;;;20.24;75.26;96109.72;5050391;28;20053;-74